sensor_id;sensor_type;location;lat;lon;timestamp;P1;durP1;ratioP1;P2;durP2;ratioP2
8413;SDS011;4244;48.684;9.028;2022-12-18T00:01:20;59.63;;;39.73;;
8413;SDS011;4244;48.684;9.028;2022-12-18T00:03:46;58.17;;;40.53;;
8413;SDS011;4244;48.684;9.028;2022-12-18T00:06:12;62.63;;;40.70;;
8413;SDS011;4244;48.684;9.028;2022-12-18T00:08:38;60.43;;;39.27;;
8413;SDS011;4244;48.684;9.028;2022-12-18T00:11:05;62.17;;;37.93;;
8413;SDS011;4244;48.684;9.028;2022-12-18T00:13:31;55.63;;;38.90;;
8413;SDS011;4244;48.684;9.028;2022-12-18T00:16:01;54.70;;;36.43;;
8413;SDS011;4244;48.684;9.028;2022-12-18T00:18:27;51.90;;;37.17;;
8413;SDS011;4244;48.684;9.028;2022-12-18T00:20:53;54.63;;;35.27;;
8413;SDS011;4244;48.684;9.028;2022-12-18T00:23:19;54.80;;;35.03;;
8413;SDS011;4244;48.684;9.028;2022-12-18T00:25:44;60.87;;;38.00;;
8413;SDS011;4244;48.684;9.028;2022-12-18T00:28:10;58.00;;;35.17;;
8413;SDS011;4244;48.684;9.028;2022-12-18T00:30:36;56.67;;;36.30;;
8413;SDS011;4244;48.684;9.028;2022-12-18T00:33:01;53.50;;;36.87;;
8413;SDS011;4244;48.684;9.028;2022-12-18T00:35:27;56.77;;;36.30;;
8413;SDS011;4244;48.684;9.028;2022-12-18T00:37:52;53.23;;;33.80;;
8413;SDS011;4244;48.684;9.028;2022-12-18T00:40:18;52.70;;;35.47;;
8413;SDS011;4244;48.684;9.028;2022-12-18T00:42:44;50.60;;;35.87;;
8413;SDS011;4244;48.684;9.028;2022-12-18T00:45:25;58.60;;;36.73;;
8413;SDS011;4244;48.684;9.028;2022-12-18T00:47:52;59.43;;;36.60;;
8413;SDS011;4244;48.684;9.028;2022-12-18T00:50:18;50.20;;;36.30;;
8413;SDS011;4244;48.684;9.028;2022-12-18T00:52:44;51.70;;;34.07;;
8413;SDS011;4244;48.684;9.028;2022-12-18T00:55:10;49.93;;;32.40;;
8413;SDS011;4244;48.684;9.028;2022-12-18T00:57:36;48.20;;;33.03;;
8413;SDS011;4244;48.684;9.028;2022-12-18T01:00:03;49.30;;;33.10;;
8413;SDS011;4244;48.684;9.028;2022-12-18T01:02:29;47.53;;;31.73;;
8413;SDS011;4244;48.684;9.028;2022-12-18T01:04:55;49.50;;;32.10;;
8413;SDS011;4244;48.684;9.028;2022-12-18T01:07:20;47.53;;;31.67;;
8413;SDS011;4244;48.684;9.028;2022-12-18T01:09:46;47.20;;;31.10;;
8413;SDS011;4244;48.684;9.028;2022-12-18T01:12:12;46.13;;;30.40;;
8413;SDS011;4244;48.684;9.028;2022-12-18T01:14:37;46.97;;;30.87;;
8413;SDS011;4244;48.684;9.028;2022-12-18T01:17:03;49.40;;;30.47;;
8413;SDS011;4244;48.684;9.028;2022-12-18T01:19:29;49.90;;;30.87;;
8413;SDS011;4244;48.684;9.028;2022-12-18T01:21:55;43.57;;;29.37;;
8413;SDS011;4244;48.684;9.028;2022-12-18T01:24:20;47.37;;;30.27;;
8413;SDS011;4244;48.684;9.028;2022-12-18T01:26:46;40.60;;;27.20;;
8413;SDS011;4244;48.684;9.028;2022-12-18T01:29:12;51.77;;;32.30;;
8413;SDS011;4244;48.684;9.028;2022-12-18T01:31:37;45.67;;;29.70;;
8413;SDS011;4244;48.684;9.028;2022-12-18T01:34:03;45.10;;;30.13;;
8413;SDS011;4244;48.684;9.028;2022-12-18T01:36:31;47.83;;;28.00;;
8413;SDS011;4244;48.684;9.028;2022-12-18T01:39:02;44.57;;;26.53;;
8413;SDS011;4244;48.684;9.028;2022-12-18T01:41:30;42.13;;;26.10;;
8413;SDS011;4244;48.684;9.028;2022-12-18T01:52:34;37.03;;;22.37;;
8413;SDS011;4244;48.684;9.028;2022-12-18T01:55:02;37.23;;;23.77;;
8413;SDS011;4244;48.684;9.028;2022-12-18T01:57:28;39.23;;;23.63;;
8413;SDS011;4244;48.684;9.028;2022-12-18T01:59:55;38.03;;;22.83;;
8413;SDS011;4244;48.684;9.028;2022-12-18T02:02:24;36.30;;;23.40;;
8413;SDS011;4244;48.684;9.028;2022-12-18T02:04:54;39.93;;;23.67;;
8413;SDS011;4244;48.684;9.028;2022-12-18T02:07:22;40.57;;;24.40;;
8413;SDS011;4244;48.684;9.028;2022-12-18T02:09:54;36.20;;;22.63;;
8413;SDS011;4244;48.684;9.028;2022-12-18T02:12:42;35.77;;;24.33;;
8413;SDS011;4244;48.684;9.028;2022-12-18T02:18:32;36.30;;;22.00;;
8413;SDS011;4244;48.684;9.028;2022-12-18T02:21:04;39.47;;;24.43;;
8413;SDS011;4244;48.684;9.028;2022-12-18T02:23:56;35.43;;;22.87;;
8413;SDS011;4244;48.684;9.028;2022-12-18T02:26:26;36.27;;;22.90;;
8413;SDS011;4244;48.684;9.028;2022-12-18T02:28:56;37.00;;;23.70;;
8413;SDS011;4244;48.684;9.028;2022-12-18T02:31:27;34.27;;;22.00;;
8413;SDS011;4244;48.684;9.028;2022-12-18T02:34:00;36.83;;;23.03;;
8413;SDS011;4244;48.684;9.028;2022-12-18T02:36:27;36.70;;;21.93;;
8413;SDS011;4244;48.684;9.028;2022-12-18T02:38:58;35.63;;;23.07;;
8413;SDS011;4244;48.684;9.028;2022-12-18T02:41:25;35.00;;;21.73;;
8413;SDS011;4244;48.684;9.028;2022-12-18T02:43:55;41.00;;;23.87;;
8413;SDS011;4244;48.684;9.028;2022-12-18T02:49:06;34.13;;;24.30;;
8413;SDS011;4244;48.684;9.028;2022-12-18T02:51:53;40.03;;;24.33;;
8413;SDS011;4244;48.684;9.028;2022-12-18T02:56:51;35.77;;;23.37;;
8413;SDS011;4244;48.684;9.028;2022-12-18T02:59:21;38.07;;;23.47;;
8413;SDS011;4244;48.684;9.028;2022-12-18T03:05:21;33.67;;;23.13;;
8413;SDS011;4244;48.684;9.028;2022-12-18T03:10:23;34.43;;;21.80;;
8413;SDS011;4244;48.684;9.028;2022-12-18T03:12:53;33.37;;;20.77;;
8413;SDS011;4244;48.684;9.028;2022-12-18T03:15:24;37.10;;;23.87;;
8413;SDS011;4244;48.684;9.028;2022-12-18T03:17:59;35.30;;;22.30;;
8413;SDS011;4244;48.684;9.028;2022-12-18T03:20:28;32.40;;;21.00;;
8413;SDS011;4244;48.684;9.028;2022-12-18T03:22:57;31.07;;;21.40;;
8413;SDS011;4244;48.684;9.028;2022-12-18T03:25:28;29.00;;;21.33;;
8413;SDS011;4244;48.684;9.028;2022-12-18T03:27:56;31.30;;;22.67;;
8413;SDS011;4244;48.684;9.028;2022-12-18T03:30:22;32.37;;;21.03;;
8413;SDS011;4244;48.684;9.028;2022-12-18T03:32:50;31.60;;;19.10;;
8413;SDS011;4244;48.684;9.028;2022-12-18T03:35:29;31.83;;;21.17;;
8413;SDS011;4244;48.684;9.028;2022-12-18T03:37:57;27.90;;;20.03;;
8413;SDS011;4244;48.684;9.028;2022-12-18T03:40:24;30.87;;;20.40;;
8413;SDS011;4244;48.684;9.028;2022-12-18T03:42:58;30.17;;;19.97;;
8413;SDS011;4244;48.684;9.028;2022-12-18T03:45:32;25.87;;;18.93;;
8413;SDS011;4244;48.684;9.028;2022-12-18T03:48:02;27.53;;;19.10;;
8413;SDS011;4244;48.684;9.028;2022-12-18T03:55:59;31.00;;;19.47;;
8413;SDS011;4244;48.684;9.028;2022-12-18T03:58:26;27.73;;;20.27;;
8413;SDS011;4244;48.684;9.028;2022-12-18T04:00:52;29.90;;;21.37;;
8413;SDS011;4244;48.684;9.028;2022-12-18T04:03:20;31.30;;;20.20;;
8413;SDS011;4244;48.684;9.028;2022-12-18T04:05:46;28.70;;;20.60;;
8413;SDS011;4244;48.684;9.028;2022-12-18T04:08:15;30.73;;;19.40;;
8413;SDS011;4244;48.684;9.028;2022-12-18T04:10:41;31.20;;;20.53;;
8413;SDS011;4244;48.684;9.028;2022-12-18T04:13:06;27.63;;;19.17;;
8413;SDS011;4244;48.684;9.028;2022-12-18T04:15:35;31.57;;;19.60;;
8413;SDS011;4244;48.684;9.028;2022-12-18T04:18:02;30.63;;;20.87;;
8413;SDS011;4244;48.684;9.028;2022-12-18T04:20:28;30.90;;;19.87;;
8413;SDS011;4244;48.684;9.028;2022-12-18T04:22:54;26.13;;;18.50;;
8413;SDS011;4244;48.684;9.028;2022-12-18T04:25:19;29.87;;;20.37;;
8413;SDS011;4244;48.684;9.028;2022-12-18T04:27:45;29.33;;;19.43;;
8413;SDS011;4244;48.684;9.028;2022-12-18T04:30:11;35.17;;;22.50;;
8413;SDS011;4244;48.684;9.028;2022-12-18T04:32:36;32.57;;;21.97;;
8413;SDS011;4244;48.684;9.028;2022-12-18T04:35:02;27.90;;;19.57;;
8413;SDS011;4244;48.684;9.028;2022-12-18T04:37:31;28.87;;;19.57;;
8413;SDS011;4244;48.684;9.028;2022-12-18T04:39:57;35.30;;;20.40;;
8413;SDS011;4244;48.684;9.028;2022-12-18T04:42:22;30.63;;;19.40;;
8413;SDS011;4244;48.684;9.028;2022-12-18T04:44:48;31.93;;;19.27;;
8413;SDS011;4244;48.684;9.028;2022-12-18T04:47:14;31.07;;;20.60;;
8413;SDS011;4244;48.684;9.028;2022-12-18T04:49:39;31.43;;;19.10;;
8413;SDS011;4244;48.684;9.028;2022-12-18T04:52:08;32.53;;;20.13;;
8413;SDS011;4244;48.684;9.028;2022-12-18T04:54:34;33.03;;;20.10;;
8413;SDS011;4244;48.684;9.028;2022-12-18T04:56:59;32.00;;;20.17;;
8413;SDS011;4244;48.684;9.028;2022-12-18T04:59:25;29.33;;;19.70;;
8413;SDS011;4244;48.684;9.028;2022-12-18T05:01:50;32.80;;;22.03;;
8413;SDS011;4244;48.684;9.028;2022-12-18T05:04:16;31.90;;;20.33;;
8413;SDS011;4244;48.684;9.028;2022-12-18T05:06:42;30.97;;;20.07;;
8413;SDS011;4244;48.684;9.028;2022-12-18T05:09:07;29.57;;;20.50;;
8413;SDS011;4244;48.684;9.028;2022-12-18T05:11:36;32.53;;;20.20;;
8413;SDS011;4244;48.684;9.028;2022-12-18T05:14:01;31.43;;;19.87;;
8413;SDS011;4244;48.684;9.028;2022-12-18T05:16:27;33.63;;;21.53;;
8413;SDS011;4244;48.684;9.028;2022-12-18T05:18:53;27.60;;;19.00;;
8413;SDS011;4244;48.684;9.028;2022-12-18T05:21:18;32.30;;;19.53;;
8413;SDS011;4244;48.684;9.028;2022-12-18T05:23:44;30.70;;;20.33;;
8413;SDS011;4244;48.684;9.028;2022-12-18T05:26:09;34.57;;;21.43;;
8413;SDS011;4244;48.684;9.028;2022-12-18T05:28:40;28.77;;;20.40;;
8413;SDS011;4244;48.684;9.028;2022-12-18T05:31:05;29.27;;;18.00;;
8413;SDS011;4244;48.684;9.028;2022-12-18T05:33:32;30.60;;;18.83;;
8413;SDS011;4244;48.684;9.028;2022-12-18T05:36:03;26.83;;;18.73;;
8413;SDS011;4244;48.684;9.028;2022-12-18T05:38:31;31.47;;;18.30;;
8413;SDS011;4244;48.684;9.028;2022-12-18T05:40:57;29.67;;;18.43;;
8413;SDS011;4244;48.684;9.028;2022-12-18T05:43:23;32.50;;;18.77;;
8413;SDS011;4244;48.684;9.028;2022-12-18T05:45:50;30.00;;;18.50;;
8413;SDS011;4244;48.684;9.028;2022-12-18T05:48:16;32.47;;;19.60;;
8413;SDS011;4244;48.684;9.028;2022-12-18T05:50:42;30.43;;;19.70;;
8413;SDS011;4244;48.684;9.028;2022-12-18T05:53:10;28.00;;;18.03;;
8413;SDS011;4244;48.684;9.028;2022-12-18T05:55:37;27.70;;;16.80;;
8413;SDS011;4244;48.684;9.028;2022-12-18T05:58:05;26.93;;;18.90;;
8413;SDS011;4244;48.684;9.028;2022-12-18T06:00:31;29.90;;;18.97;;
8413;SDS011;4244;48.684;9.028;2022-12-18T06:02:58;31.67;;;18.53;;
8413;SDS011;4244;48.684;9.028;2022-12-18T06:05:24;34.97;;;20.93;;
8413;SDS011;4244;48.684;9.028;2022-12-18T06:07:50;31.63;;;19.53;;
8413;SDS011;4244;48.684;9.028;2022-12-18T06:10:16;29.50;;;18.30;;
8413;SDS011;4244;48.684;9.028;2022-12-18T06:12:41;29.30;;;18.20;;
8413;SDS011;4244;48.684;9.028;2022-12-18T06:15:08;26.37;;;17.00;;
8413;SDS011;4244;48.684;9.028;2022-12-18T06:17:40;29.53;;;18.57;;
8413;SDS011;4244;48.684;9.028;2022-12-18T06:20:05;27.93;;;16.60;;
8413;SDS011;4244;48.684;9.028;2022-12-18T06:22:31;33.13;;;19.83;;
8413;SDS011;4244;48.684;9.028;2022-12-18T06:24:57;29.70;;;19.10;;
8413;SDS011;4244;48.684;9.028;2022-12-18T06:27:24;31.10;;;17.93;;
8413;SDS011;4244;48.684;9.028;2022-12-18T06:29:50;27.20;;;16.60;;
8413;SDS011;4244;48.684;9.028;2022-12-18T06:32:15;27.00;;;17.07;;
8413;SDS011;4244;48.684;9.028;2022-12-18T06:34:41;30.77;;;17.93;;
8413;SDS011;4244;48.684;9.028;2022-12-18T06:37:07;29.63;;;18.40;;
8413;SDS011;4244;48.684;9.028;2022-12-18T06:39:32;27.50;;;19.07;;
8413;SDS011;4244;48.684;9.028;2022-12-18T06:41:58;30.77;;;18.80;;
8413;SDS011;4244;48.684;9.028;2022-12-18T06:44:23;29.30;;;18.00;;
8413;SDS011;4244;48.684;9.028;2022-12-18T06:46:49;37.37;;;19.33;;
8413;SDS011;4244;48.684;9.028;2022-12-18T06:49:15;31.20;;;19.50;;
8413;SDS011;4244;48.684;9.028;2022-12-18T06:51:41;29.27;;;18.73;;
8413;SDS011;4244;48.684;9.028;2022-12-18T06:54:07;29.23;;;18.13;;
8413;SDS011;4244;48.684;9.028;2022-12-18T06:56:32;31.50;;;17.67;;
8413;SDS011;4244;48.684;9.028;2022-12-18T06:58:58;31.57;;;18.70;;
8413;SDS011;4244;48.684;9.028;2022-12-18T07:01:23;31.00;;;18.60;;
8413;SDS011;4244;48.684;9.028;2022-12-18T07:03:53;33.70;;;19.37;;
8413;SDS011;4244;48.684;9.028;2022-12-18T07:06:20;29.03;;;17.83;;
8413;SDS011;4244;48.684;9.028;2022-12-18T07:08:48;27.63;;;20.10;;
8413;SDS011;4244;48.684;9.028;2022-12-18T07:11:14;34.00;;;18.70;;
8413;SDS011;4244;48.684;9.028;2022-12-18T07:13:40;32.50;;;20.73;;
8413;SDS011;4244;48.684;9.028;2022-12-18T07:16:09;30.50;;;20.23;;
8413;SDS011;4244;48.684;9.028;2022-12-18T07:18:42;31.43;;;19.53;;
8413;SDS011;4244;48.684;9.028;2022-12-18T07:21:09;35.30;;;20.70;;
8413;SDS011;4244;48.684;9.028;2022-12-18T07:23:37;37.20;;;20.60;;
8413;SDS011;4244;48.684;9.028;2022-12-18T07:26:06;32.17;;;19.70;;
8413;SDS011;4244;48.684;9.028;2022-12-18T07:28:34;33.60;;;19.73;;
8413;SDS011;4244;48.684;9.028;2022-12-18T07:31:04;41.27;;;23.13;;
8413;SDS011;4244;48.684;9.028;2022-12-18T07:33:31;31.83;;;20.07;;
8413;SDS011;4244;48.684;9.028;2022-12-18T07:36:01;29.70;;;17.20;;
8413;SDS011;4244;48.684;9.028;2022-12-18T07:38:28;29.90;;;18.63;;
8413;SDS011;4244;48.684;9.028;2022-12-18T07:40:54;36.87;;;22.33;;
8413;SDS011;4244;48.684;9.028;2022-12-18T07:43:20;37.63;;;22.33;;
8413;SDS011;4244;48.684;9.028;2022-12-18T07:45:48;35.47;;;22.07;;
8413;SDS011;4244;48.684;9.028;2022-12-18T07:48:14;35.53;;;21.07;;
8413;SDS011;4244;48.684;9.028;2022-12-18T07:50:40;31.03;;;21.33;;
8413;SDS011;4244;48.684;9.028;2022-12-18T07:53:05;34.10;;;19.40;;
8413;SDS011;4244;48.684;9.028;2022-12-18T07:55:31;34.63;;;20.27;;
8413;SDS011;4244;48.684;9.028;2022-12-18T07:58:00;32.90;;;20.33;;
8413;SDS011;4244;48.684;9.028;2022-12-18T08:00:26;36.03;;;21.47;;
8413;SDS011;4244;48.684;9.028;2022-12-18T08:02:51;34.57;;;20.57;;
8413;SDS011;4244;48.684;9.028;2022-12-18T08:05:17;30.83;;;20.60;;
8413;SDS011;4244;48.684;9.028;2022-12-18T08:07:42;32.90;;;19.87;;
8413;SDS011;4244;48.684;9.028;2022-12-18T08:10:08;29.73;;;20.23;;
8413;SDS011;4244;48.684;9.028;2022-12-18T08:12:34;33.37;;;21.43;;
8413;SDS011;4244;48.684;9.028;2022-12-18T08:14:59;35.93;;;21.80;;
8413;SDS011;4244;48.684;9.028;2022-12-18T08:17:26;32.27;;;21.30;;
8413;SDS011;4244;48.684;9.028;2022-12-18T08:19:52;32.17;;;21.17;;
8413;SDS011;4244;48.684;9.028;2022-12-18T08:22:17;29.00;;;19.63;;
8413;SDS011;4244;48.684;9.028;2022-12-18T08:24:43;32.07;;;22.07;;
8413;SDS011;4244;48.684;9.028;2022-12-18T08:27:09;36.17;;;22.60;;
8413;SDS011;4244;48.684;9.028;2022-12-18T08:29:35;32.33;;;22.60;;
8413;SDS011;4244;48.684;9.028;2022-12-18T08:32:00;34.00;;;22.80;;
8413;SDS011;4244;48.684;9.028;2022-12-18T08:34:26;32.90;;;23.20;;
8413;SDS011;4244;48.684;9.028;2022-12-18T08:36:52;31.80;;;22.60;;
8413;SDS011;4244;48.684;9.028;2022-12-18T08:39:17;31.50;;;22.00;;
8413;SDS011;4244;48.684;9.028;2022-12-18T08:41:43;32.30;;;24.23;;
8413;SDS011;4244;48.684;9.028;2022-12-18T08:44:28;29.73;;;23.00;;
8413;SDS011;4244;48.684;9.028;2022-12-18T08:47:03;29.80;;;20.03;;
8413;SDS011;4244;48.684;9.028;2022-12-18T08:49:29;29.27;;;20.97;;
8413;SDS011;4244;48.684;9.028;2022-12-18T08:51:55;29.40;;;22.40;;
8413;SDS011;4244;48.684;9.028;2022-12-18T08:54:24;28.70;;;21.00;;
8413;SDS011;4244;48.684;9.028;2022-12-18T08:56:50;28.87;;;21.40;;
8413;SDS011;4244;48.684;9.028;2022-12-18T08:59:18;29.17;;;22.20;;
8413;SDS011;4244;48.684;9.028;2022-12-18T09:01:44;30.43;;;22.67;;
8413;SDS011;4244;48.684;9.028;2022-12-18T09:04:10;28.67;;;21.60;;
8413;SDS011;4244;48.684;9.028;2022-12-18T09:06:37;32.07;;;23.87;;
8413;SDS011;4244;48.684;9.028;2022-12-18T09:09:03;26.87;;;20.63;;
8413;SDS011;4244;48.684;9.028;2022-12-18T09:11:29;34.60;;;24.17;;
8413;SDS011;4244;48.684;9.028;2022-12-18T09:13:55;32.30;;;24.67;;
8413;SDS011;4244;48.684;9.028;2022-12-18T09:16:22;31.00;;;23.30;;
8413;SDS011;4244;48.684;9.028;2022-12-18T09:18:50;28.07;;;22.50;;
8413;SDS011;4244;48.684;9.028;2022-12-18T09:21:19;29.00;;;22.37;;
8413;SDS011;4244;48.684;9.028;2022-12-18T09:23:52;26.63;;;23.00;;
8413;SDS011;4244;48.684;9.028;2022-12-18T09:26:19;28.20;;;22.73;;
8413;SDS011;4244;48.684;9.028;2022-12-18T09:28:45;23.13;;;17.63;;
8413;SDS011;4244;48.684;9.028;2022-12-18T09:31:14;9.43;;;5.20;;
8413;SDS011;4244;48.684;9.028;2022-12-18T09:33:40;14.57;;;9.70;;
8413;SDS011;4244;48.684;9.028;2022-12-18T09:36:07;11.43;;;10.23;;
8413;SDS011;4244;48.684;9.028;2022-12-18T09:38:34;16.40;;;11.70;;
8413;SDS011;4244;48.684;9.028;2022-12-18T09:41:03;17.63;;;14.90;;
8413;SDS011;4244;48.684;9.028;2022-12-18T09:43:47;21.23;;;18.87;;
8413;SDS011;4244;48.684;9.028;2022-12-18T09:46:38;25.77;;;21.53;;
8413;SDS011;4244;48.684;9.028;2022-12-18T09:49:14;27.03;;;22.73;;
8413;SDS011;4244;48.684;9.028;2022-12-18T09:51:44;26.27;;;22.97;;
8413;SDS011;4244;48.684;9.028;2022-12-18T09:54:14;23.60;;;21.20;;
8413;SDS011;4244;48.684;9.028;2022-12-18T09:56:43;24.53;;;21.93;;
8413;SDS011;4244;48.684;9.028;2022-12-18T09:59:18;22.63;;;20.20;;
8413;SDS011;4244;48.684;9.028;2022-12-18T10:01:45;25.20;;;22.33;;
8413;SDS011;4244;48.684;9.028;2022-12-18T10:04:11;25.33;;;22.07;;
8413;SDS011;4244;48.684;9.028;2022-12-18T10:12:02;24.00;;;21.50;;
8413;SDS011;4244;48.684;9.028;2022-12-18T10:17:45;24.73;;;22.03;;
8413;SDS011;4244;48.684;9.028;2022-12-18T10:20:32;24.87;;;22.23;;
8413;SDS011;4244;48.684;9.028;2022-12-18T10:28:30;25.93;;;23.20;;
8413;SDS011;4244;48.684;9.028;2022-12-18T10:30:56;24.63;;;21.93;;
8413;SDS011;4244;48.684;9.028;2022-12-18T10:33:23;24.23;;;21.60;;
8413;SDS011;4244;48.684;9.028;2022-12-18T10:35:52;24.00;;;21.50;;
8413;SDS011;4244;48.684;9.028;2022-12-18T10:40:48;22.70;;;20.30;;
8413;SDS011;4244;48.684;9.028;2022-12-18T10:43:27;24.10;;;21.73;;
8413;SDS011;4244;48.684;9.028;2022-12-18T10:51:18;22.37;;;20.03;;
8413;SDS011;4244;48.684;9.028;2022-12-18T10:56:40;23.40;;;21.00;;
8413;SDS011;4244;48.684;9.028;2022-12-18T10:59:07;23.23;;;20.93;;
8413;SDS011;4244;48.684;9.028;2022-12-18T11:04:28;23.30;;;20.90;;
8413;SDS011;4244;48.684;9.028;2022-12-18T11:06:55;22.80;;;20.50;;
8413;SDS011;4244;48.684;9.028;2022-12-18T11:09:22;22.80;;;17.00;;
8413;SDS011;4244;48.684;9.028;2022-12-18T11:11:57;22.87;;;15.00;;
8413;SDS011;4244;48.684;9.028;2022-12-18T11:14:30;19.37;;;14.00;;
8413;SDS011;4244;48.684;9.028;2022-12-18T11:16:58;23.37;;;16.90;;
8413;SDS011;4244;48.684;9.028;2022-12-18T11:19:28;19.20;;;15.87;;
8413;SDS011;4244;48.684;9.028;2022-12-18T11:22:00;20.00;;;15.40;;
8413;SDS011;4244;48.684;9.028;2022-12-18T11:24:31;17.73;;;15.97;;
8413;SDS011;4244;48.684;9.028;2022-12-18T11:26:59;18.93;;;17.13;;
8413;SDS011;4244;48.684;9.028;2022-12-18T11:29:30;21.90;;;19.80;;
8413;SDS011;4244;48.684;9.028;2022-12-18T11:34:40;23.87;;;21.77;;
8413;SDS011;4244;48.684;9.028;2022-12-18T11:37:09;24.27;;;22.17;;
8413;SDS011;4244;48.684;9.028;2022-12-18T11:39:46;25.97;;;23.60;;
8413;SDS011;4244;48.684;9.028;2022-12-18T11:50:13;23.57;;;21.37;;
8413;SDS011;4244;48.684;9.028;2022-12-18T11:52:43;23.73;;;21.73;;
8413;SDS011;4244;48.684;9.028;2022-12-18T11:55:16;24.63;;;22.53;;
8413;SDS011;4244;48.684;9.028;2022-12-18T12:00:30;25.70;;;23.40;;
8413;SDS011;4244;48.684;9.028;2022-12-18T12:08:17;23.17;;;21.07;;
8413;SDS011;4244;48.684;9.028;2022-12-18T12:16:17;23.17;;;20.97;;
8413;SDS011;4244;48.684;9.028;2022-12-18T12:18:56;25.40;;;22.80;;
8413;SDS011;4244;48.684;9.028;2022-12-18T12:21:41;22.07;;;19.90;;
8413;SDS011;4244;48.684;9.028;2022-12-18T12:24:33;24.00;;;21.70;;
8413;SDS011;4244;48.684;9.028;2022-12-18T12:40:17;24.10;;;21.60;;
8413;SDS011;4244;48.684;9.028;2022-12-18T12:42:54;13.67;;;10.37;;
8413;SDS011;4244;48.684;9.028;2022-12-18T12:48:30;16.30;;;11.53;;
8413;SDS011;4244;48.684;9.028;2022-12-18T12:51:12;15.17;;;13.57;;
8413;SDS011;4244;48.684;9.028;2022-12-18T12:53:42;21.60;;;19.43;;
8413;SDS011;4244;48.684;9.028;2022-12-18T12:56:09;22.90;;;20.50;;
8413;SDS011;4244;48.684;9.028;2022-12-18T13:01:33;23.27;;;20.87;;
8413;SDS011;4244;48.684;9.028;2022-12-18T13:04:21;24.07;;;21.07;;
8413;SDS011;4244;48.684;9.028;2022-12-18T13:07:06;25.37;;;22.70;;
8413;SDS011;4244;48.684;9.028;2022-12-18T13:20:34;24.87;;;22.27;;
8413;SDS011;4244;48.684;9.028;2022-12-18T13:30:59;25.00;;;22.30;;
8413;SDS011;4244;48.684;9.028;2022-12-18T13:35:55;23.53;;;20.03;;
8413;SDS011;4244;48.684;9.028;2022-12-18T13:38:40;25.17;;;21.47;;
8413;SDS011;4244;48.684;9.028;2022-12-18T13:43:47;31.03;;;25.70;;
8413;SDS011;4244;48.684;9.028;2022-12-18T13:48:49;27.00;;;23.17;;
8413;SDS011;4244;48.684;9.028;2022-12-18T13:52:40;27.60;;;22.43;;
8413;SDS011;4244;48.684;9.028;2022-12-18T13:54:41;26.83;;;22.73;;
8413;SDS011;4244;48.684;9.028;2022-12-18T13:59:53;29.03;;;22.87;;
8413;SDS011;4244;48.684;9.028;2022-12-18T14:02:24;29.33;;;24.13;;
8413;SDS011;4244;48.684;9.028;2022-12-18T14:04:50;29.37;;;23.73;;
8413;SDS011;4244;48.684;9.028;2022-12-18T14:07:18;24.67;;;21.17;;
8413;SDS011;4244;48.684;9.028;2022-12-18T14:09:46;32.90;;;24.30;;
8413;SDS011;4244;48.684;9.028;2022-12-18T14:15:23;30.20;;;23.83;;
8413;SDS011;4244;48.684;9.028;2022-12-18T14:20:43;31.30;;;24.30;;
8413;SDS011;4244;48.684;9.028;2022-12-18T14:23:27;29.77;;;24.20;;
8413;SDS011;4244;48.684;9.028;2022-12-18T14:25:55;31.93;;;26.00;;
8413;SDS011;4244;48.684;9.028;2022-12-18T14:28:20;31.87;;;23.87;;
8413;SDS011;4244;48.684;9.028;2022-12-18T14:30:50;32.60;;;26.10;;
8413;SDS011;4244;48.684;9.028;2022-12-18T14:33:18;32.13;;;26.80;;
8413;SDS011;4244;48.684;9.028;2022-12-18T14:36:01;34.97;;;25.73;;
8413;SDS011;4244;48.684;9.028;2022-12-18T14:41:04;40.17;;;29.50;;
8413;SDS011;4244;48.684;9.028;2022-12-18T14:43:38;45.10;;;30.87;;
8413;SDS011;4244;48.684;9.028;2022-12-18T14:46:05;41.93;;;29.13;;
8413;SDS011;4244;48.684;9.028;2022-12-18T14:48:50;39.63;;;27.97;;
8413;SDS011;4244;48.684;9.028;2022-12-18T14:51:17;33.83;;;24.70;;
8413;SDS011;4244;48.684;9.028;2022-12-18T14:53:45;36.73;;;26.47;;
8413;SDS011;4244;48.684;9.028;2022-12-18T14:58:45;34.40;;;25.07;;
8413;SDS011;4244;48.684;9.028;2022-12-18T15:01:19;34.40;;;27.30;;
8413;SDS011;4244;48.684;9.028;2022-12-18T15:03:50;36.67;;;26.50;;
8413;SDS011;4244;48.684;9.028;2022-12-18T15:06:26;36.10;;;25.63;;
8413;SDS011;4244;48.684;9.028;2022-12-18T15:09:00;34.77;;;26.20;;
8413;SDS011;4244;48.684;9.028;2022-12-18T15:11:32;41.20;;;28.00;;
8413;SDS011;4244;48.684;9.028;2022-12-18T15:13:59;38.07;;;26.87;;
8413;SDS011;4244;48.684;9.028;2022-12-18T15:16:28;37.63;;;26.60;;
8413;SDS011;4244;48.684;9.028;2022-12-18T15:18:53;37.53;;;26.50;;
8413;SDS011;4244;48.684;9.028;2022-12-18T15:21:19;36.57;;;26.60;;
8413;SDS011;4244;48.684;9.028;2022-12-18T15:26:15;39.33;;;27.27;;
8413;SDS011;4244;48.684;9.028;2022-12-18T15:28:51;37.47;;;25.27;;
8413;SDS011;4244;48.684;9.028;2022-12-18T15:31:22;34.83;;;26.20;;
8413;SDS011;4244;48.684;9.028;2022-12-18T15:36:18;40.10;;;27.03;;
8413;SDS011;4244;48.684;9.028;2022-12-18T15:38:52;36.43;;;25.83;;
8413;SDS011;4244;48.684;9.028;2022-12-18T15:41:20;41.33;;;28.23;;
8413;SDS011;4244;48.684;9.028;2022-12-18T15:43:46;42.60;;;26.80;;
8413;SDS011;4244;48.684;9.028;2022-12-18T15:48:40;39.23;;;27.53;;
8413;SDS011;4244;48.684;9.028;2022-12-18T15:53:41;44.03;;;28.73;;
8413;SDS011;4244;48.684;9.028;2022-12-18T15:56:09;38.10;;;26.73;;
8413;SDS011;4244;48.684;9.028;2022-12-18T15:58:54;43.90;;;30.27;;
8413;SDS011;4244;48.684;9.028;2022-12-18T16:01:20;45.97;;;30.53;;
8413;SDS011;4244;48.684;9.028;2022-12-18T16:03:49;46.07;;;28.83;;
8413;SDS011;4244;48.684;9.028;2022-12-18T16:06:15;41.87;;;27.43;;
8413;SDS011;4244;48.684;9.028;2022-12-18T16:08:41;43.63;;;29.80;;
8413;SDS011;4244;48.684;9.028;2022-12-18T16:11:09;43.10;;;27.50;;
8413;SDS011;4244;48.684;9.028;2022-12-18T16:14:02;42.90;;;29.30;;
8413;SDS011;4244;48.684;9.028;2022-12-18T16:16:33;51.03;;;32.97;;
8413;SDS011;4244;48.684;9.028;2022-12-18T16:18:58;53.97;;;34.17;;
8413;SDS011;4244;48.684;9.028;2022-12-18T16:21:25;46.13;;;30.00;;
8413;SDS011;4244;48.684;9.028;2022-12-18T16:23:51;44.80;;;30.57;;
8413;SDS011;4244;48.684;9.028;2022-12-18T16:26:16;39.17;;;28.37;;
8413;SDS011;4244;48.684;9.028;2022-12-18T16:28:42;48.67;;;29.70;;
8413;SDS011;4244;48.684;9.028;2022-12-18T16:31:08;42.37;;;28.93;;
8413;SDS011;4244;48.684;9.028;2022-12-18T16:33:35;49.10;;;29.80;;
8413;SDS011;4244;48.684;9.028;2022-12-18T16:36:01;42.17;;;28.17;;
8413;SDS011;4244;48.684;9.028;2022-12-18T16:38:26;43.03;;;27.27;;
8413;SDS011;4244;48.684;9.028;2022-12-18T16:40:52;40.30;;;26.40;;
8413;SDS011;4244;48.684;9.028;2022-12-18T16:43:36;41.17;;;25.60;;
8413;SDS011;4244;48.684;9.028;2022-12-18T16:46:02;45.70;;;28.63;;
8413;SDS011;4244;48.684;9.028;2022-12-18T16:48:27;39.40;;;28.03;;
8413;SDS011;4244;48.684;9.028;2022-12-18T16:50:59;38.97;;;25.47;;
8413;SDS011;4244;48.684;9.028;2022-12-18T16:53:29;40.70;;;29.60;;
8413;SDS011;4244;48.684;9.028;2022-12-18T16:55:55;43.47;;;28.93;;
8413;SDS011;4244;48.684;9.028;2022-12-18T16:58:21;44.00;;;28.40;;
8413;SDS011;4244;48.684;9.028;2022-12-18T17:00:47;37.87;;;26.47;;
8413;SDS011;4244;48.684;9.028;2022-12-18T17:03:13;42.10;;;27.77;;
8413;SDS011;4244;48.684;9.028;2022-12-18T17:05:38;42.90;;;27.40;;
8413;SDS011;4244;48.684;9.028;2022-12-18T17:08:04;43.53;;;26.20;;
8413;SDS011;4244;48.684;9.028;2022-12-18T17:10:30;46.70;;;28.90;;
8413;SDS011;4244;48.684;9.028;2022-12-18T17:12:56;42.70;;;27.67;;
8413;SDS011;4244;48.684;9.028;2022-12-18T17:15:21;42.97;;;26.27;;
8413;SDS011;4244;48.684;9.028;2022-12-18T17:17:47;39.43;;;27.80;;
8413;SDS011;4244;48.684;9.028;2022-12-18T17:20:13;41.83;;;28.03;;
8413;SDS011;4244;48.684;9.028;2022-12-18T17:22:38;37.83;;;26.27;;
8413;SDS011;4244;48.684;9.028;2022-12-18T17:25:04;42.53;;;28.93;;
8413;SDS011;4244;48.684;9.028;2022-12-18T17:27:30;44.10;;;29.07;;